createdAt,value
2019-06-07T00:02:42.124Z,101504.55
2019-06-07T00:07:43.601Z,101500.11
2019-06-07T00:12:45.117Z,101492.16
2019-06-07T00:17:46.536Z,101492.84
2019-06-07T00:22:48.060Z,101498.68
2019-06-07T00:27:49.557Z,101491.36
2019-06-07T00:32:51.298Z,101490.19
2019-06-07T00:37:52.907Z,101485.94
2019-06-07T00:42:54.308Z,101484.17
2019-06-07T00:47:56.088Z,101481.29
2019-06-07T00:58:00.792Z,101483.50
2019-06-07T01:03:02.355Z,101479.64
2019-06-07T01:08:03.912Z,101483.88
2019-06-07T01:13:05.644Z,101470.50
2019-06-07T01:23:51.815Z,101475.03
2019-06-07T01:28:13.803Z,101464.74
2019-06-07T01:33:15.910Z,101466.30
2019-06-07T01:38:21.198Z,101462.91
2019-06-07T01:43:26.186Z,101453.38
2019-06-07T01:48:27.755Z,101456.69
2019-06-07T01:53:29.107Z,101444.67
2019-06-07T01:58:31.069Z,101450.13
2019-06-07T02:03:33.399Z,101455.73
2019-06-07T02:08:35.051Z,101456.94
2019-06-07T02:13:36.433Z,101447.33
2019-06-07T02:18:58.831Z,101437.63
2019-06-07T02:23:41.171Z,101438.00
2019-06-07T02:28:45.465Z,101434.76
2019-06-07T02:33:45.842Z,101423.56
2019-06-07T02:38:47.288Z,101420.40
2019-06-07T02:43:48.799Z,101413.58
2019-06-07T02:48:50.528Z,101409.17
2019-06-07T02:53:52.045Z,101394.44
2019-06-07T02:58:53.341Z,101396.05
2019-06-07T03:03:54.682Z,101384.61
2019-06-07T03:08:56.356Z,101381.00
2019-06-07T03:13:57.943Z,101383.39
2019-06-07T03:18:59.492Z,101376.94
2019-06-07T03:24:00.976Z,101380.30
2019-06-07T03:29:02.492Z,101381.95
2019-06-07T03:34:03.977Z,101379.73
2019-06-07T03:39:06.058Z,101371.67
2019-06-07T03:44:08.598Z,101370.52
2019-06-07T03:49:10.023Z,101368.80
2019-06-07T03:54:11.528Z,101365.05
2019-06-07T03:59:12.858Z,101356.83
2019-06-07T04:04:14.369Z,101353.23
2019-06-07T04:09:15.976Z,101353.22
2019-06-07T04:14:17.582Z,101350.86
2019-06-07T04:19:18.909Z,101339.28
2019-06-07T04:24:20.395Z,101340.61
2019-06-07T04:29:32.884Z,101334.09
2019-06-07T04:34:25.400Z,101331.80
2019-06-07T04:39:26.910Z,101329.70
2019-06-07T04:44:28.894Z,101319.70
2019-06-07T04:49:33.513Z,101311.55
2019-06-07T04:54:37.339Z,101304.23
2019-06-07T05:00:10.460Z,101287.13
2019-06-07T05:04:43.991Z,101278.25
2019-06-07T05:09:45.860Z,101280.47
2019-06-07T05:14:47.333Z,101279.23
2019-06-07T05:19:48.767Z,101277.86
2019-06-07T05:24:50.284Z,101271.04
2019-06-07T05:30:09.470Z,101268.88
2019-06-07T05:34:55.251Z,101253.39
2019-06-07T05:39:56.655Z,101247.02
2019-06-07T05:44:58.179Z,101241.86
2019-06-07T05:49:59.716Z,101253.38
2019-06-07T05:55:01.126Z,101252.77
2019-06-07T06:00:03.051Z,101250.70
2019-06-07T06:05:06.594Z,101239.48
2019-06-07T06:10:08.679Z,101240.13
2019-06-07T06:15:10.209Z,101234.28
2019-06-07T06:20:11.708Z,101223.20
2019-06-07T06:30:16.656Z,101221.62
2019-06-07T06:35:21.645Z,101211.38
2019-06-07T06:40:23.328Z,101205.63
2019-06-07T06:45:24.902Z,101194.83
2019-06-07T06:50:26.468Z,101195.64
2019-06-07T06:55:27.890Z,101189.26
2019-06-07T07:01:05.789Z,101180.42
2019-06-07T07:05:54.743Z,101167.97
2019-06-07T07:10:55.952Z,101158.22
2019-06-07T07:15:58.560Z,101147.08
2019-06-07T07:21:00.522Z,101143.81
2019-06-07T07:26:02.000Z,101141.87
2019-06-07T07:31:03.506Z,101146.77
2019-06-07T07:36:23.246Z,101126.68
2019-06-07T07:41:15.168Z,101106.62
2019-06-07T07:46:28.311Z,101112.13
2019-06-07T07:51:15.352Z,101109.88
2019-06-07T07:56:16.775Z,101111.31
2019-06-07T08:01:18.314Z,101096.66
2019-06-07T08:06:19.828Z,101079.84
2019-06-07T08:11:21.364Z,101075.52
2019-06-07T08:16:22.839Z,101059.09
2019-06-07T08:21:26.923Z,101034.28
2019-06-07T08:26:27.836Z,101031.11
2019-06-07T08:31:29.347Z,101023.13
2019-06-07T08:36:41.753Z,101023.17
2019-06-07T08:41:34.220Z,101028.47
2019-06-07T08:46:35.734Z,101004.06
2019-06-07T08:51:37.262Z,101001.84
2019-06-07T08:56:38.730Z,100999.61
2019-06-07T09:01:40.263Z,100988.08
2019-06-07T09:07:02.503Z,100962.33
2019-06-07T09:11:45.258Z,100971.62
2019-06-07T09:16:46.697Z,100975.59
2019-06-07T09:21:48.269Z,100956.39
2019-06-07T09:26:50.041Z,100943.75
2019-06-07T09:31:53.622Z,100928.06
2019-06-07T09:36:58.152Z,100908.70
2019-06-07T09:42:00.478Z,100904.41
2019-06-07T09:47:22.552Z,100904.05
2019-06-07T09:52:10.341Z,100901.36
2019-06-07T09:57:16.639Z,100898.99
2019-06-07T10:02:13.797Z,100881.20
2019-06-07T10:07:30.593Z,100886.43
2019-06-07T10:12:19.268Z,100865.22
2019-06-07T10:17:21.071Z,100861.40
2019-06-07T10:22:22.519Z,100851.80
2019-06-07T10:27:24.524Z,100857.18
2019-06-07T10:32:26.168Z,100843.61
2019-06-07T10:37:28.074Z,100830.98
2019-06-07T10:42:30.081Z,100816.87
2019-06-07T10:47:31.570Z,100803.77
2019-06-07T10:52:33.449Z,100796.61
2019-06-07T10:57:34.991Z,100796.33
2019-06-07T11:02:36.609Z,100777.35
2019-06-07T11:07:38.428Z,100781.62
2019-06-07T11:12:39.926Z,100755.25
2019-06-07T11:17:41.831Z,100745.09
2019-06-07T11:22:43.351Z,100744.89
2019-06-07T11:27:45.061Z,100730.84
2019-06-07T11:32:47.452Z,100722.42
2019-06-07T11:37:48.983Z,100717.83
2019-06-07T11:42:52.753Z,100707.64
2019-06-07T11:47:54.021Z,100705.95
2019-06-07T11:52:55.903Z,100695.77
2019-06-07T11:57:57.706Z,100688.83
2019-06-07T12:02:59.241Z,100660.65
2019-06-07T12:08:01.379Z,100664.30
2019-06-07T12:13:02.883Z,100664.30
2019-06-07T12:18:04.436Z,100661.99
2019-06-07T12:23:06.768Z,100654.30
2019-06-07T12:28:08.358Z,100640.41
2019-06-07T12:33:11.285Z,100630.88
2019-06-07T12:38:14.628Z,100616.45
2019-06-07T12:43:17.006Z,100621.40
2019-06-07T12:48:21.282Z,100614.65
2019-06-07T12:53:26.403Z,100617.94
2019-06-07T12:58:33.851Z,100623.66
2019-06-07T13:03:29.267Z,100615.72
2019-06-07T13:08:31.182Z,100616.32
2019-06-07T13:13:33.136Z,100618.06
2019-06-07T13:18:35.002Z,100603.37
2019-06-07T13:23:36.831Z,100602.34
2019-06-07T13:28:38.476Z,100602.94
2019-06-07T13:33:40.016Z,100611.56
2019-06-07T13:38:42.012Z,100599.86
2019-06-07T13:43:44.212Z,100604.91
2019-06-07T13:48:45.707Z,100596.44
2019-06-07T13:53:47.265Z,100588.59
2019-06-07T13:58:49.139Z,100586.88
2019-06-07T14:03:50.925Z,100586.11
2019-06-07T14:08:52.771Z,100590.53
2019-06-07T14:13:54.195Z,100588.06
2019-06-07T14:18:55.738Z,100599.72
2019-06-07T14:23:57.222Z,100598.30
2019-06-07T14:28:59.066Z,100603.83
2019-06-07T14:34:00.610Z,100606.33
2019-06-07T14:39:03.838Z,100606.02
2019-06-07T14:44:06.256Z,100612.23
2019-06-07T14:49:07.908Z,100617.72
2019-06-07T14:54:09.238Z,100633.48
2019-06-07T14:59:10.525Z,100651.30
2019-06-07T15:04:12.050Z,100702.75
2019-06-07T15:09:14.074Z,100737.27
2019-06-07T15:14:16.908Z,100750.96
2019-06-07T15:19:18.543Z,100762.82
2019-06-07T15:24:20.372Z,100753.22
2019-06-07T15:29:21.896Z,100770.98
2019-06-07T15:34:23.696Z,100779.44
2019-06-07T15:39:25.467Z,100782.09
2019-06-07T15:44:26.973Z,100757.26
2019-06-07T15:49:30.303Z,100750.17
2019-06-07T15:54:32.274Z,100738.17
2019-06-07T15:59:35.687Z,100747.95
2019-06-07T16:04:37.939Z,100757.27
2019-06-07T16:09:40.578Z,100756.81
2019-06-07T16:14:43.511Z,100771.39
2019-06-07T16:19:46.651Z,100729.29
2019-06-07T16:24:48.238Z,100739.48
2019-06-07T16:29:50.053Z,100744.80
2019-06-07T16:34:51.603Z,100742.52
2019-06-07T16:39:53.133Z,100735.39
2019-06-07T16:44:54.677Z,100743.31
2019-06-07T16:49:57.077Z,100790.12
2019-06-07T16:54:58.622Z,100790.69
2019-06-07T17:00:00.467Z,100775.49
2019-06-07T17:05:02.169Z,100690.44
2019-06-07T17:10:04.212Z,100725.58
2019-06-07T17:15:07.589Z,100724.48
2019-06-07T17:20:08.993Z,100720.30
2019-06-07T17:25:10.531Z,100684.06
2019-06-07T17:30:12.105Z,100688.56
2019-06-07T17:35:13.623Z,100732.40
2019-06-07T17:40:15.253Z,100726.77
2019-06-07T17:45:16.875Z,100748.23
2019-06-07T17:50:18.444Z,100745.00
2019-06-07T17:55:20.037Z,100748.27
2019-06-07T18:00:29.436Z,100731.58
2019-06-07T18:05:25.352Z,100729.42
2019-06-07T18:10:34.706Z,100721.47
2019-06-07T18:15:38.665Z,100719.25
2019-06-07T18:20:40.203Z,100719.47
2019-06-07T18:25:42.164Z,100716.94
2019-06-07T18:30:43.934Z,100727.42
2019-06-07T18:35:47.010Z,100723.36
2019-06-07T18:40:49.110Z,100710.86
2019-06-07T18:45:53.473Z,100710.37
2019-06-07T18:50:56.561Z,100742.97
2019-06-07T18:55:58.338Z,100752.09
2019-06-07T19:01:00.091Z,100757.70
2019-06-07T19:06:02.146Z,100746.98
2019-06-07T19:11:03.798Z,100737.16
2019-06-07T19:16:05.370Z,100740.61
2019-06-07T19:21:08.044Z,100743.13
2019-06-07T19:26:10.417Z,100737.66
2019-06-07T19:31:12.339Z,100737.95
2019-06-07T19:36:13.927Z,100730.33
2019-06-07T19:41:19.580Z,100724.89
2019-06-07T19:46:20.912Z,100716.84
2019-06-07T19:51:23.105Z,100708.77
2019-06-07T19:56:24.687Z,100705.55
2019-06-07T20:01:26.202Z,100701.91
2019-06-07T20:06:29.850Z,100708.41
2019-06-07T20:11:33.479Z,100703.02
2019-06-07T20:16:41.882Z,100705.66
2019-06-07T20:21:45.180Z,100715.27
2019-06-07T20:26:47.440Z,100715.54
2019-06-07T20:31:50.188Z,100723.03
2019-06-07T20:36:53.809Z,100723.16
2019-06-07T20:41:57.166Z,100724.22
2019-06-07T20:46:59.967Z,100727.03
2019-06-07T20:52:03.014Z,100731.05
2019-06-07T20:57:06.734Z,100724.86
2019-06-07T21:02:09.713Z,100714.59
2019-06-07T21:07:11.601Z,100710.27
2019-06-07T21:12:13.227Z,100707.33
2019-06-07T21:17:15.676Z,100698.66
2019-06-07T21:22:17.566Z,100698.19
2019-06-07T21:27:19.039Z,100698.28
2019-06-07T21:32:20.594Z,100685.63
2019-06-07T21:37:24.224Z,100672.40
2019-06-07T21:42:25.647Z,100675.98
2019-06-07T21:47:27.531Z,100672.02
2019-06-07T21:52:29.901Z,100665.88
2019-06-07T21:57:31.420Z,100657.52
2019-06-07T22:02:33.449Z,100659.34
2019-06-07T22:07:34.959Z,100657.17
2019-06-07T22:12:36.470Z,100666.91
2019-06-07T22:17:38.212Z,100669.17
2019-06-07T22:22:39.529Z,100683.77
2019-06-07T22:27:41.043Z,100681.13
2019-06-07T22:32:42.543Z,100688.64
2019-06-07T22:37:44.390Z,100690.39
2019-06-07T22:42:45.917Z,100692.14
2019-06-07T22:47:48.232Z,100682.88
2019-06-07T22:52:49.955Z,100689.92
2019-06-07T22:57:51.488Z,100690.34
2019-06-07T23:02:53.294Z,100697.81
2019-06-07T23:07:55.154Z,100700.89
2019-06-07T23:12:57.116Z,100705.70
2019-06-07T23:17:58.660Z,100703.05
2019-06-07T23:23:00.201Z,100712.32
2019-06-07T23:28:01.663Z,100712.32
2019-06-07T23:33:03.388Z,100711.42
2019-06-07T23:38:05.231Z,100711.85
2019-06-07T23:43:06.923Z,100706.98
2019-06-07T23:48:08.747Z,100703.02
2019-06-07T23:53:11.606Z,100690.58
2019-06-07T23:58:13.941Z,100699.00
